createdAt,value
2018-02-20T00:01:20.607Z,29.33
2018-02-20T00:03:47.528Z,30.23
2018-02-20T00:06:14.353Z,29.87
2018-02-20T00:08:41.107Z,30.62
2018-02-20T00:11:07.868Z,31.45
2018-02-20T00:13:34.702Z,29.85
2018-02-20T00:16:01.476Z,31.52
2018-02-20T00:18:28.232Z,33.88
2018-02-20T00:20:54.991Z,33.70
2018-02-20T00:23:21.847Z,37.65
2018-02-20T00:25:48.606Z,36.47
2018-02-20T00:28:15.378Z,35.10
2018-02-20T00:30:42.132Z,33.22
2018-02-20T00:33:08.938Z,35.72
2018-02-20T00:35:35.703Z,33.83
2018-02-20T00:38:02.412Z,32.25
2018-02-20T00:40:29.163Z,31.73
2018-02-20T00:42:55.929Z,31.17
2018-02-20T00:45:22.703Z,31.75
2018-02-20T00:47:49.457Z,33.08
2018-02-20T00:50:16.285Z,32.95
2018-02-20T00:52:43.039Z,30.62
2018-02-20T00:55:09.755Z,28.87
2018-02-20T00:57:36.530Z,28.87
2018-02-20T01:00:03.338Z,30.40
2018-02-20T01:02:30.025Z,28.33
2018-02-20T01:04:56.793Z,29.45
2018-02-20T01:07:23.530Z,29.95
2018-02-20T01:09:50.286Z,29.17
2018-02-20T01:12:17.069Z,30.58
2018-02-20T01:14:43.865Z,31.33
2018-02-20T01:17:10.557Z,30.65
2018-02-20T01:19:37.359Z,30.88
2018-02-20T01:22:04.102Z,30.67
2018-02-20T01:24:30.923Z,29.65
2018-02-20T01:26:57.654Z,31.00
2018-02-20T01:29:24.403Z,30.55
2018-02-20T01:31:51.186Z,29.20
2018-02-20T01:34:17.974Z,31.48
2018-02-20T01:36:44.742Z,31.55
2018-02-20T01:39:11.513Z,30.85
2018-02-20T01:41:38.286Z,30.42
2018-02-20T01:44:05.036Z,30.27
2018-02-20T01:46:31.847Z,29.98
2018-02-20T01:48:58.536Z,30.65
2018-02-20T01:51:25.249Z,30.88
2018-02-20T01:53:51.966Z,28.42
2018-02-20T01:56:18.732Z,30.25
2018-02-20T01:58:45.608Z,32.20
2018-02-20T02:01:12.390Z,31.35
2018-02-20T02:03:39.279Z,30.88
2018-02-20T02:06:06.002Z,31.37
2018-02-20T02:08:32.705Z,28.12
2018-02-20T02:10:59.501Z,30.25
2018-02-20T02:13:26.234Z,30.02
2018-02-20T02:15:53.079Z,31.23
2018-02-20T02:18:19.838Z,30.73
2018-02-20T02:20:46.563Z,33.65
2018-02-20T02:23:13.348Z,33.35
2018-02-20T02:25:40.054Z,33.05
2018-02-20T02:28:06.768Z,31.80
2018-02-20T02:30:33.596Z,34.10
2018-02-20T02:33:00.428Z,33.78
2018-02-20T02:35:27.179Z,33.28
2018-02-20T02:37:53.942Z,34.03
2018-02-20T02:40:20.707Z,33.70
2018-02-20T02:42:47.444Z,33.45
2018-02-20T02:45:14.202Z,32.20
2018-02-20T02:47:40.965Z,34.10
2018-02-20T02:50:07.683Z,36.88
2018-02-20T02:52:34.472Z,34.72
2018-02-20T02:55:01.260Z,35.97
2018-02-20T02:57:28.015Z,33.03
2018-02-20T02:59:54.893Z,34.53
2018-02-20T03:04:54.876Z,34.50
2018-02-20T03:07:21.654Z,35.72
2018-02-20T03:09:48.403Z,33.97
2018-02-20T03:12:15.204Z,34.05
2018-02-20T03:14:41.902Z,34.92
2018-02-20T03:17:08.722Z,33.70
2018-02-20T03:19:35.484Z,33.10
2018-02-20T03:22:02.295Z,36.60
2018-02-20T03:24:29.111Z,32.75
2018-02-20T03:26:55.927Z,32.55
2018-02-20T03:29:22.742Z,33.70
2018-02-20T03:31:49.515Z,34.40
2018-02-20T03:34:16.380Z,34.90
2018-02-20T03:36:43.117Z,32.55
2018-02-20T03:39:09.794Z,33.05
2018-02-20T03:41:36.625Z,32.22
2018-02-20T03:44:03.455Z,30.98
2018-02-20T03:46:30.207Z,33.15
2018-02-20T03:48:56.934Z,32.97
2018-02-20T03:51:23.691Z,32.45
2018-02-20T03:53:50.520Z,33.67
2018-02-20T03:56:17.264Z,31.10
2018-02-20T03:58:44.057Z,31.98
2018-02-20T04:01:10.784Z,32.55
2018-02-20T04:03:37.588Z,32.00
2018-02-20T04:06:04.368Z,32.13
2018-02-20T04:08:31.114Z,33.55
2018-02-20T04:10:57.890Z,31.75
2018-02-20T04:13:24.667Z,34.20
2018-02-20T04:15:51.409Z,32.22
2018-02-20T04:18:18.227Z,33.28
2018-02-20T04:20:44.975Z,32.95
2018-02-20T04:23:11.741Z,32.45
2018-02-20T04:25:38.443Z,31.62
2018-02-20T04:28:05.185Z,32.30
2018-02-20T04:30:31.977Z,31.62
2018-02-20T04:32:58.664Z,32.40
2018-02-20T04:35:25.442Z,33.90
2018-02-20T04:37:52.175Z,33.42
2018-02-20T04:40:18.961Z,33.72
2018-02-20T04:42:45.681Z,34.25
2018-02-20T04:45:12.496Z,32.38
2018-02-20T04:47:39.248Z,32.75
2018-02-20T04:50:06.019Z,33.90
2018-02-20T04:52:32.821Z,32.58
2018-02-20T04:54:59.570Z,33.88
2018-02-20T04:57:26.389Z,33.38
2018-02-20T04:59:53.094Z,32.92
2018-02-20T05:02:19.798Z,33.63
2018-02-20T05:04:46.501Z,33.40
2018-02-20T05:07:13.245Z,34.10
2018-02-20T05:09:39.986Z,34.58
2018-02-20T05:12:06.735Z,37.08
2018-02-20T05:14:33.450Z,33.78
2018-02-20T05:17:00.318Z,34.58
2018-02-20T05:19:27.042Z,34.28
2018-02-20T05:21:53.812Z,34.45
2018-02-20T05:24:20.496Z,35.08
2018-02-20T05:26:47.282Z,33.78
2018-02-20T05:29:13.969Z,37.05
2018-02-20T05:31:40.712Z,35.03
2018-02-20T05:34:07.414Z,31.52
2018-02-20T05:36:34.205Z,36.58
2018-02-20T05:39:00.944Z,37.55
2018-02-20T05:41:27.688Z,34.83
2018-02-20T05:43:54.558Z,35.28
2018-02-20T05:46:21.257Z,33.78
2018-02-20T05:48:47.915Z,38.72
2018-02-20T05:51:14.556Z,34.95
2018-02-20T05:53:41.239Z,36.30
2018-02-20T05:56:07.876Z,35.25
2018-02-20T05:58:34.536Z,34.22
2018-02-20T06:01:01.220Z,35.30
2018-02-20T06:03:27.881Z,36.33
2018-02-20T06:05:54.519Z,36.00
2018-02-20T06:08:21.197Z,36.55
2018-02-20T06:10:47.873Z,38.30
2018-02-20T06:13:14.532Z,38.72
2018-02-20T06:15:41.201Z,36.65
2018-02-20T06:18:07.884Z,38.05
2018-02-20T06:20:34.530Z,36.85
2018-02-20T06:23:01.198Z,36.63
2018-02-20T06:25:27.884Z,36.13
2018-02-20T06:27:54.546Z,37.20
2018-02-20T06:30:21.193Z,33.70
2018-02-20T06:32:47.844Z,36.28
2018-02-20T06:35:14.504Z,36.30
2018-02-20T06:37:41.165Z,35.90
2018-02-20T06:40:07.836Z,34.72
2018-02-20T06:42:34.490Z,33.50
2018-02-20T06:45:01.164Z,34.50
2018-02-20T06:47:27.829Z,43.50
2018-02-20T06:49:54.506Z,38.63
2018-02-20T06:52:21.197Z,40.17
2018-02-20T06:54:47.868Z,38.92
2018-02-20T06:57:14.520Z,38.92
2018-02-20T06:59:41.245Z,37.10
2018-02-20T07:02:07.912Z,36.85
2018-02-20T07:04:34.588Z,35.30
2018-02-20T07:07:01.262Z,37.50
2018-02-20T07:09:27.920Z,37.53
2018-02-20T07:11:54.635Z,36.80
2018-02-20T07:14:21.270Z,38.65
2018-02-20T07:16:47.946Z,37.88
2018-02-20T07:19:14.610Z,35.72
2018-02-20T07:21:42.135Z,36.63
2018-02-20T07:24:08.795Z,35.78
2018-02-20T07:26:35.470Z,34.92
2018-02-20T07:29:02.168Z,36.80
2018-02-20T07:31:28.850Z,37.17
2018-02-20T07:33:55.521Z,35.28
2018-02-20T07:36:22.228Z,38.78
2018-02-20T07:38:48.899Z,39.45
2018-02-20T07:41:15.588Z,38.15
2018-02-20T07:43:42.248Z,38.83
2018-02-20T07:46:08.911Z,34.95
2018-02-20T07:48:35.569Z,36.90
2018-02-20T07:51:02.245Z,36.15
2018-02-20T07:53:28.908Z,35.72
2018-02-20T07:55:55.565Z,36.10
2018-02-20T07:58:22.260Z,37.20
2018-02-20T08:00:48.948Z,35.03
2018-02-20T08:03:15.647Z,35.38
2018-02-20T08:05:42.325Z,33.88
2018-02-20T08:08:09.009Z,33.80
2018-02-20T08:10:35.664Z,33.63
2018-02-20T08:13:02.336Z,34.38
2018-02-20T08:15:28.994Z,34.88
2018-02-20T08:17:55.684Z,33.80
2018-02-20T08:20:22.332Z,33.20
2018-02-20T08:22:49.049Z,34.47
2018-02-20T08:25:15.743Z,33.80
2018-02-20T08:27:42.429Z,35.75
2018-02-20T08:30:09.101Z,35.33
2018-02-20T08:32:35.801Z,37.00
2018-02-20T08:35:02.460Z,37.35
2018-02-20T08:37:29.156Z,36.55
2018-02-20T08:39:55.812Z,38.42
2018-02-20T08:42:22.477Z,38.58
2018-02-20T08:44:49.157Z,40.15
2018-02-20T08:47:15.808Z,38.92
2018-02-20T08:49:42.493Z,39.28
2018-02-20T08:52:09.148Z,41.37
2018-02-20T08:54:35.817Z,40.63
2018-02-20T08:57:02.481Z,40.08
2018-02-20T08:59:29.166Z,40.97
2018-02-20T09:01:55.821Z,41.60
2018-02-20T09:04:22.493Z,39.70
2018-02-20T09:06:49.145Z,43.30
2018-02-20T09:09:15.832Z,40.23
2018-02-20T09:11:42.498Z,40.80
2018-02-20T09:14:09.166Z,40.47
2018-02-20T09:16:35.815Z,40.40
2018-02-20T09:19:02.498Z,42.70
2018-02-20T09:21:29.177Z,40.37
2018-02-20T09:23:55.822Z,39.60
2018-02-20T09:26:22.509Z,40.73
2018-02-20T09:28:49.193Z,41.03
2018-02-20T09:31:15.865Z,42.07
2018-02-20T09:33:42.543Z,40.77
2018-02-20T09:36:09.222Z,41.47
2018-02-20T09:38:35.898Z,40.70
2018-02-20T09:41:02.582Z,41.30
2018-02-20T09:43:29.293Z,40.10
2018-02-20T09:45:55.930Z,40.33
2018-02-20T09:48:22.624Z,41.30
2018-02-20T09:50:49.287Z,40.53
2018-02-20T09:53:15.957Z,39.30
2018-02-20T09:55:42.637Z,39.80
2018-02-20T09:58:09.312Z,39.40
2018-02-20T10:00:36.014Z,37.43
2018-02-20T10:03:02.684Z,39.30
2018-02-20T10:05:29.364Z,38.57
2018-02-20T10:07:56.007Z,38.57
2018-02-20T10:10:22.891Z,37.90
2018-02-20T10:12:49.544Z,37.50
2018-02-20T10:15:16.209Z,38.43
2018-02-20T10:17:42.892Z,39.47
2018-02-20T10:20:09.589Z,38.73
2018-02-20T10:22:36.271Z,38.93
2018-02-20T10:25:02.946Z,40.10
2018-02-20T10:27:29.656Z,38.90
2018-02-20T10:29:56.343Z,37.90
2018-02-20T10:32:23.033Z,37.80
2018-02-20T10:34:49.699Z,38.37
2018-02-20T10:37:16.378Z,40.77
2018-02-20T10:39:43.050Z,38.60
2018-02-20T10:42:09.725Z,39.00
2018-02-20T10:44:36.428Z,39.20
2018-02-20T10:47:03.114Z,39.97
2018-02-20T10:49:29.772Z,38.87
2018-02-20T10:51:56.461Z,39.37
2018-02-20T10:54:23.119Z,41.13
2018-02-20T10:56:49.843Z,40.63
2018-02-20T10:59:16.541Z,43.20
2018-02-20T11:01:43.218Z,45.80
2018-02-20T11:04:09.894Z,45.00
2018-02-20T11:06:36.568Z,46.47
2018-02-20T11:09:03.244Z,45.97
2018-02-20T11:11:29.925Z,48.87
2018-02-20T11:13:56.614Z,47.60
2018-02-20T11:16:23.334Z,47.03
2018-02-20T11:18:50.020Z,47.33
2018-02-20T11:21:16.681Z,47.73
2018-02-20T11:23:43.501Z,46.47
2018-02-20T11:26:10.161Z,45.13
2018-02-20T11:28:36.881Z,43.33
2018-02-20T11:31:03.546Z,43.40
2018-02-20T11:33:30.245Z,42.47
2018-02-20T11:35:56.915Z,40.43
2018-02-20T11:38:23.584Z,44.17
2018-02-20T11:40:50.275Z,42.67
2018-02-20T11:43:16.956Z,42.27
2018-02-20T11:45:43.611Z,47.30
2018-02-20T11:48:10.302Z,44.17
2018-02-20T11:50:36.985Z,45.58
2018-02-20T11:53:03.649Z,42.78
2018-02-20T11:55:30.335Z,45.22
2018-02-20T11:57:57.080Z,41.83
2018-02-20T12:00:23.772Z,41.80
2018-02-20T12:02:50.449Z,45.17
2018-02-20T12:05:17.180Z,42.25
2018-02-20T12:07:43.855Z,43.30
2018-02-20T12:10:10.609Z,43.22
2018-02-20T12:12:37.399Z,41.47
2018-02-20T12:15:04.089Z,39.35
2018-02-20T12:17:30.753Z,37.97
2018-02-20T12:19:57.428Z,41.67
2018-02-20T12:22:24.148Z,41.20
2018-02-20T12:24:50.834Z,41.37
2018-02-20T12:27:17.510Z,39.53
2018-02-20T12:29:44.254Z,35.80
2018-02-20T12:32:10.938Z,37.03
2018-02-20T12:34:37.627Z,39.28
2018-02-20T12:37:04.288Z,41.78
2018-02-20T12:39:30.984Z,44.30
2018-02-20T12:41:57.633Z,42.95
2018-02-20T12:44:24.290Z,42.42
2018-02-20T12:46:51.068Z,45.35
2018-02-20T12:49:17.766Z,41.88
2018-02-20T12:51:44.446Z,44.78
2018-02-20T12:54:11.103Z,46.37
2018-02-20T12:56:37.769Z,42.25
2018-02-20T12:59:04.480Z,40.55
2018-02-20T13:01:31.141Z,39.42
2018-02-20T13:03:57.800Z,43.20
2018-02-20T13:06:24.470Z,44.13
2018-02-20T13:08:51.134Z,39.85
2018-02-20T13:11:17.801Z,42.20
2018-02-20T13:13:44.462Z,43.50
2018-02-20T13:16:11.124Z,44.30
2018-02-20T13:18:37.765Z,46.33
2018-02-20T13:21:04.448Z,43.13
2018-02-20T13:23:31.381Z,42.17
2018-02-20T13:25:58.098Z,41.85
2018-02-20T13:28:24.745Z,40.72
2018-02-20T13:30:51.426Z,41.83
2018-02-20T13:33:18.098Z,39.13
2018-02-20T13:35:44.766Z,38.78
2018-02-20T13:38:11.411Z,40.97
2018-02-20T13:40:38.094Z,40.85
2018-02-20T13:43:04.770Z,39.30
2018-02-20T13:45:31.434Z,43.03
2018-02-20T13:47:58.113Z,43.67
2018-02-20T13:50:24.811Z,40.88
2018-02-20T13:52:51.471Z,41.00
2018-02-20T13:55:18.135Z,43.55
2018-02-20T13:57:44.827Z,43.55
2018-02-20T14:00:11.482Z,46.30
2018-02-20T14:02:38.143Z,40.15
2018-02-20T14:05:04.818Z,41.22
2018-02-20T14:07:31.500Z,42.92
2018-02-20T14:09:58.160Z,41.15
2018-02-20T14:12:24.831Z,40.60
2018-02-20T14:14:51.481Z,42.15
2018-02-20T14:17:18.164Z,40.95
2018-02-20T14:19:44.824Z,41.85
2018-02-20T14:22:11.500Z,41.08
2018-02-20T14:24:38.160Z,38.63
2018-02-20T14:27:04.821Z,39.58
2018-02-20T14:29:31.473Z,39.30
2018-02-20T14:31:58.157Z,39.30
2018-02-20T14:34:24.822Z,37.33
2018-02-20T14:36:51.485Z,42.55
2018-02-20T14:39:18.160Z,40.83
2018-02-20T14:41:44.819Z,39.47
2018-02-20T14:44:11.497Z,45.95
2018-02-20T14:46:38.162Z,45.63
2018-02-20T14:49:04.829Z,40.97
2018-02-20T14:51:31.487Z,45.70
2018-02-20T14:53:58.303Z,42.88
2018-02-20T14:56:24.973Z,39.03
2018-02-20T14:58:51.637Z,38.35
2018-02-20T15:01:18.299Z,41.65
2018-02-20T15:03:44.977Z,43.70
2018-02-20T15:06:11.638Z,40.83
2018-02-20T15:08:38.316Z,39.22
2018-02-20T15:11:05.026Z,41.37
2018-02-20T15:13:31.702Z,38.38
2018-02-20T15:15:58.402Z,43.05
2018-02-20T15:18:25.078Z,41.15
2018-02-20T15:20:51.755Z,42.83
2018-02-20T15:23:18.438Z,41.17
2018-02-20T15:25:45.118Z,41.47
2018-02-20T15:28:11.829Z,41.42
2018-02-20T15:30:38.476Z,41.20
2018-02-20T15:33:05.116Z,41.75
2018-02-20T15:35:31.788Z,40.60
2018-02-20T15:37:58.446Z,43.95
2018-02-20T15:40:25.118Z,43.60
2018-02-20T15:42:51.831Z,43.67
2018-02-20T15:45:18.497Z,42.17
2018-02-20T15:47:45.153Z,41.78
2018-02-20T15:50:11.906Z,42.33
2018-02-20T15:52:38.565Z,43.08
2018-02-20T15:55:05.251Z,43.10
2018-02-20T15:57:31.946Z,42.25
2018-02-20T15:59:58.616Z,45.70
2018-02-20T16:02:25.287Z,45.97
2018-02-20T16:04:52.033Z,43.35
2018-02-20T16:07:18.721Z,46.33
2018-02-20T16:09:45.400Z,48.15
2018-02-20T16:12:12.066Z,46.25
2018-02-20T16:14:38.757Z,47.97
2018-02-20T16:17:06.307Z,44.80
2018-02-20T16:19:32.965Z,45.63
2018-02-20T16:21:59.638Z,44.13
2018-02-20T16:24:26.308Z,45.08
2018-02-20T16:26:52.990Z,64.60
2018-02-20T16:29:19.682Z,51.65
2018-02-20T16:31:46.363Z,50.92
2018-02-20T16:34:13.050Z,48.65
2018-02-20T16:36:39.739Z,51.95
2018-02-20T16:39:06.406Z,48.35
2018-02-20T16:41:33.205Z,46.30
2018-02-20T16:44:00.371Z,47.78
2018-02-20T16:46:27.081Z,46.85
2018-02-20T16:48:53.753Z,46.60
2018-02-20T16:51:29.076Z,51.22
2018-02-20T16:53:56.930Z,44.17
2018-02-20T16:56:29.459Z,52.72
2018-02-20T16:58:56.580Z,44.97
2018-02-20T17:01:23.352Z,47.67
2018-02-20T17:03:50.040Z,45.97
2018-02-20T17:06:16.713Z,47.45
2018-02-20T17:08:51.809Z,45.47
2018-02-20T17:11:18.499Z,44.00
2018-02-20T17:13:45.173Z,44.50
2018-02-20T17:16:12.205Z,44.83
2018-02-20T17:18:38.928Z,46.63
2018-02-20T17:21:05.610Z,47.00
2018-02-20T17:23:32.338Z,52.88
2018-02-20T17:25:59.029Z,46.40
2018-02-20T17:28:25.684Z,53.63
2018-02-20T17:30:54.879Z,53.97
2018-02-20T17:33:23.045Z,48.90
2018-02-20T17:35:49.731Z,53.60
2018-02-20T17:38:16.575Z,56.00
2018-02-20T17:40:43.236Z,50.25
2018-02-20T17:43:09.933Z,52.75
2018-02-20T17:45:36.575Z,54.22
2018-02-20T17:48:03.235Z,54.10
2018-02-20T17:50:29.906Z,51.33
2018-02-20T17:52:56.658Z,52.50
2018-02-20T17:55:23.310Z,51.13
2018-02-20T17:57:49.986Z,53.87
2018-02-20T18:00:17.320Z,51.63
2018-02-20T18:02:44.079Z,50.95
2018-02-20T18:05:10.754Z,52.70
2018-02-20T18:07:37.468Z,53.25
2018-02-20T18:10:04.122Z,55.03
2018-02-20T18:12:30.785Z,53.53
2018-02-20T18:14:57.473Z,53.75
2018-02-20T18:17:24.560Z,52.38
2018-02-20T18:19:51.245Z,51.72
2018-02-20T18:22:17.946Z,53.22
2018-02-20T18:24:44.616Z,52.65
2018-02-20T18:27:11.280Z,52.08
2018-02-20T18:29:37.960Z,53.55
2018-02-20T18:32:04.608Z,55.47
2018-02-20T18:34:31.394Z,53.60
2018-02-20T18:37:02.109Z,61.17
2018-02-20T18:39:28.817Z,55.17
2018-02-20T18:41:55.514Z,55.60
2018-02-20T18:44:22.164Z,55.60
2018-02-20T18:46:48.862Z,52.80
2018-02-20T18:49:15.543Z,56.45
2018-02-20T18:51:42.214Z,53.60
2018-02-20T18:54:08.877Z,56.45
2018-02-20T18:56:35.546Z,56.20
2018-02-20T18:59:02.229Z,57.28
2018-02-20T19:01:28.889Z,57.65
2018-02-20T19:03:55.578Z,54.63
2018-02-20T19:06:22.227Z,55.55
2018-02-20T19:08:48.885Z,59.45
2018-02-20T19:11:16.273Z,56.80
2018-02-20T19:13:42.969Z,57.92
2018-02-20T19:16:09.644Z,61.60
2018-02-20T19:18:36.320Z,57.03
2018-02-20T19:21:03.006Z,55.17
2018-02-20T19:23:29.897Z,56.30
2018-02-20T19:25:56.577Z,56.58
2018-02-20T19:28:23.245Z,55.70
2018-02-20T19:30:50.057Z,55.03
2018-02-20T19:33:17.208Z,56.72
2018-02-20T19:35:43.947Z,57.67
2018-02-20T19:38:10.587Z,56.85
2018-02-20T19:40:37.281Z,57.67
2018-02-20T19:43:03.961Z,58.00
2018-02-20T19:45:30.664Z,60.65
2018-02-20T19:47:57.398Z,66.53
2018-02-20T19:50:24.085Z,60.45
2018-02-20T19:52:50.904Z,61.55
2018-02-20T19:55:17.942Z,61.60
2018-02-20T19:57:44.923Z,62.70
2018-02-20T20:00:12.013Z,64.80
2018-02-20T20:02:38.765Z,64.25
2018-02-20T20:05:05.561Z,60.58
2018-02-20T20:07:32.677Z,60.63
2018-02-20T20:09:59.447Z,62.62
2018-02-20T20:12:26.243Z,61.78
2018-02-20T20:14:53.494Z,58.75
2018-02-20T20:17:20.278Z,61.53
2018-02-20T20:19:47.052Z,58.63
2018-02-20T20:22:13.756Z,62.08
2018-02-20T20:24:40.398Z,58.25
2018-02-20T20:27:07.092Z,59.38
2018-02-20T20:29:34.157Z,59.60
2018-02-20T20:32:00.959Z,59.13
2018-02-20T20:34:27.715Z,58.40
2018-02-20T20:36:54.793Z,58.67
2018-02-20T20:39:21.464Z,66.93
2018-02-20T20:41:48.159Z,59.45
2018-02-20T20:44:14.836Z,63.05
2018-02-20T20:46:41.528Z,59.30
2018-02-20T20:49:08.205Z,64.00
2018-02-20T20:51:34.906Z,59.55
2018-02-20T20:54:01.594Z,63.33
2018-02-20T20:56:28.455Z,66.72
2018-02-20T20:58:55.345Z,64.22
2018-02-20T21:01:22.437Z,64.20
2018-02-20T21:03:49.299Z,65.43
2018-02-20T21:06:16.662Z,62.80
2018-02-20T21:08:43.446Z,62.90
2018-02-20T21:11:10.156Z,62.60
2018-02-20T21:13:36.919Z,59.20
2018-02-20T21:16:03.631Z,61.63
2018-02-20T21:18:30.394Z,61.50
2018-02-20T21:20:57.081Z,62.35
2018-02-20T21:23:23.872Z,61.65
2018-02-20T21:25:50.552Z,60.67
2018-02-20T21:28:17.267Z,64.78
2018-02-20T21:30:43.922Z,60.90
2018-02-20T21:33:10.609Z,57.28
2018-02-20T21:35:37.337Z,60.38
2018-02-20T21:38:04.004Z,57.53
2018-02-20T21:40:30.721Z,60.53
2018-02-20T21:42:57.413Z,58.13
2018-02-20T21:45:24.086Z,55.35
2018-02-20T21:47:50.775Z,55.38
2018-02-20T21:50:17.568Z,52.60
2018-02-20T21:52:44.251Z,54.70
2018-02-20T21:55:10.898Z,50.03
2018-02-20T21:57:37.598Z,52.00
2018-02-20T22:00:04.261Z,49.95
2018-02-20T22:02:30.913Z,53.35
2018-02-20T22:04:57.634Z,49.22
2018-02-20T22:07:24.747Z,51.97
2018-02-20T22:09:51.463Z,48.33
2018-02-20T22:12:18.122Z,49.65
2018-02-20T22:14:44.842Z,48.50
2018-02-20T22:17:11.517Z,48.47
2018-02-20T22:19:38.277Z,48.40
2018-02-20T22:22:04.930Z,47.83
2018-02-20T22:24:31.609Z,47.97
2018-02-20T22:26:58.368Z,47.10
2018-02-20T22:29:25.034Z,44.80
2018-02-20T22:31:51.725Z,48.63
2018-02-20T22:34:18.395Z,47.75
2018-02-20T22:36:45.057Z,48.72
2018-02-20T22:39:11.738Z,50.05
2018-02-20T22:41:38.443Z,47.33
2018-02-20T22:44:05.186Z,46.50
2018-02-20T22:46:31.885Z,44.08
2018-02-20T22:48:58.593Z,47.62
2018-02-20T22:51:25.287Z,45.80
2018-02-20T22:53:51.972Z,46.15
2018-02-20T22:56:18.690Z,45.65
2018-02-20T22:58:45.355Z,47.10
2018-02-20T23:01:12.043Z,48.13
2018-02-20T23:03:38.723Z,48.03
2018-02-20T23:06:05.415Z,46.88
2018-02-20T23:08:32.098Z,46.15
2018-02-20T23:10:58.788Z,49.60
2018-02-20T23:13:25.465Z,45.75
2018-02-20T23:15:52.241Z,44.58
2018-02-20T23:18:19.023Z,43.83
2018-02-20T23:20:45.804Z,46.47
2018-02-20T23:23:12.638Z,42.55
2018-02-20T23:25:39.329Z,44.65
2018-02-20T23:28:06.020Z,43.72
2018-02-20T23:30:32.852Z,42.75
2018-02-20T23:32:59.672Z,41.50
2018-02-20T23:35:29.532Z,42.65
2018-02-20T23:37:57.396Z,45.22
2018-02-20T23:40:24.738Z,41.42
2018-02-20T23:42:51.434Z,40.88
2018-02-20T23:45:18.157Z,40.83
2018-02-20T23:47:44.841Z,40.88
2018-02-20T23:50:11.505Z,41.33
2018-02-20T23:52:38.193Z,40.53
2018-02-20T23:55:04.879Z,40.05
2018-02-20T23:57:31.551Z,39.75
2018-02-20T23:59:58.247Z,40.03
